ボレ国際空港(アディスアベバ)の過去48時間の天気

ボレ国際空港(アディスアベバ) (Addis Ababa)

現在時刻: 2/22 10:01 EAT (2/22 07:01 UTC) 以下の時間は現地時間です。

過去48時間のMETAR気象情報
時間 風向 風速(m/s) 視程 気温(℃) 湿度(%) 気圧(hPa) 天気現象
22 09:00 6 10km以上 18 64 1029
22 08:00 5 10km以上 16 72 1028
22 05:00 2 10km以上 12 71 1026
22 04:00 3 10km以上 14 72 1026
22 03:00 3 10km以上 15 72 1026
22 02:00 東北東 4 10km以上 16 72 1026
22 00:00 東南東 2 10km以上 16 55 1028
21 22:00 4 10km以上 18 45 1028
21 17:00 7 10km以上 25 34 1024
21 14:00 5 10km以上 25 34 1024
21 13:00 3 10km以上 22 41 1027
21 12:00 2 10km以上 22 41 1027
21 11:00 東南東 4 10km以上 21 46 1028
21 08:00 2 10km以上 15 67 1027
21 06:00 4 10km以上 11 76 1025
20 23:00 東北東 5 10km以上 16 68 1027
20 22:00 東北東 7 10km以上 17 63 1027
20 21:00 東北東 6 10km以上 18 60 1027
20 18:00 6 10km以上 23 36 1025
20 17:00 6 10km以上 24 34 1025
20 16:00 南南東 6 10km以上 26 32 1024
20 15:00 南南東 5 10km以上 25 32 1024
20 14:00 南東 3 10km以上 24 36 1025
20 13:00 東南東 3 10km以上 24 36 1026
20 12:00 5 10km以上 22 43 1027
20 11:00 6 10km以上 22 43 1028
HAAB 220600Z 09012KT 9999 SCT025 18/11 Q1029
HAAB 220500Z 08010KT 9999 SCT025 16/11 Q1028
HAAB 220200Z 09004KT 9999 FEW025 12/07 Q1026
HAAB 220100Z 08006KT 9999 FEW025 14/09 Q1026
HAAB 220000Z 08006KT 9999 FEW025 15/10 Q1026
HAAB 212300Z 07008KT 9999 FEW025 16/11 Q1026
HAAB 212100Z 12004KT 9999 FEW025 16/07 Q1028
HAAB 211900Z 08008KT 9999 FEW025 18/06 Q1028
HAAB 211400Z 10014KT 9999 FEW025 25/08 Q1024
HAAB 211100Z 09010KT 9999 FEW025 25/08 Q1024
HAAB 211000Z 09005KT 9999 FEW068 22/08 Q1027
HAAB 210900Z 09004KT 9999 SCT030 22/08 Q1027
HAAB 210800Z 11008KT 9999 SCT030 21/09 Q1028
HAAB 210500Z 08004KT 9999 FEW030 15/09 Q1027
HAAB 210300Z 08008KT 9999 FEW025 11/07 Q1025
HAAB 202000Z 07010KT 9999 FEW030 16/10 Q1027
HAAB 201900Z 07014KT 9999 FEW030 17/10 Q1027
HAAB 201800Z 07012KT 9999 FEW030 18/10 Q1027
HAAB 201500Z 09012KT 9999 SCT030 23/07 Q1025
HAAB 201400Z 09012KT 9999 SCT030 24/07 Q1025
HAAB 201300Z 16012KT 9999 SCT030 26/08 Q1024
HAAB 201200Z 16010KT 9999 SCT030 25/07 Q1024
HAAB 201100Z 14006KT 9999 SCT025 24/08 Q1025
HAAB 201000Z 11006KT 9999 SCT025 24/08 Q1026
HAAB 200900Z 10010KT 9999 BKN025 22/09 Q1027
HAAB 200800Z 09012KT 9999 SCT025 22/09 Q1028